createdAt,value
2023-01-26T00:01:13.143Z,101893.94
2023-01-26T00:03:40.457Z,101895.28
2023-01-26T00:06:08.525Z,101896.03
2023-01-26T00:08:38.362Z,101900.22
2023-01-26T00:11:05.955Z,101900.56
2023-01-26T00:13:35.452Z,101904.41
2023-01-26T00:16:02.943Z,101899.00
2023-01-26T00:18:30.610Z,101895.28
2023-01-26T00:20:57.662Z,101894.66
2023-01-26T00:23:24.454Z,101889.84
2023-01-26T00:25:52.670Z,101909.34
2023-01-26T00:28:19.431Z,101913.88
2023-01-26T00:30:46.176Z,101894.16
2023-01-26T00:33:13.100Z,101894.53
2023-01-26T00:35:39.831Z,101889.63
2023-01-26T00:38:09.484Z,101894.31
2023-01-26T00:40:36.137Z,101893.16
2023-01-26T00:43:04.375Z,101894.16
2023-01-26T00:45:31.206Z,101894.25
2023-01-26T00:47:57.910Z,101906.00
2023-01-26T00:50:24.574Z,101906.22
2023-01-26T00:52:51.286Z,101911.63
2023-01-26T00:55:18.100Z,101907.50
2023-01-26T00:57:44.757Z,101907.88
2023-01-26T01:00:13.879Z,101904.81
2023-01-26T01:02:40.571Z,101900.03
2023-01-26T01:05:07.963Z,101897.44
2023-01-26T01:07:34.782Z,101896.34
2023-01-26T01:10:01.727Z,101899.16
2023-01-26T01:12:28.488Z,101897.44
2023-01-26T01:14:55.288Z,101891.44
2023-01-26T01:17:23.361Z,101885.59
2023-01-26T01:19:52.991Z,101881.91
2023-01-26T01:22:19.711Z,101890.88
2023-01-26T01:24:46.468Z,101889.66
2023-01-26T01:27:13.211Z,101883.69
2023-01-26T01:29:39.912Z,101886.50
2023-01-26T01:32:06.660Z,101889.34
2023-01-26T01:34:34.865Z,101888.59
2023-01-26T01:37:01.616Z,101886.03
2023-01-26T01:39:28.359Z,101888.28
2023-01-26T01:41:55.040Z,101893.41
2023-01-26T01:44:23.498Z,101892.75
2023-01-26T01:46:55.147Z,101895.59
2023-01-26T01:49:28.120Z,101889.91
2023-01-26T01:51:59.621Z,101899.63
2023-01-26T01:54:32.358Z,101902.69
2023-01-26T01:57:03.589Z,101907.50
2023-01-26T01:59:32.548Z,101907.72
2023-01-26T02:01:59.420Z,101888.94
2023-01-26T02:04:26.867Z,101897.31
2023-01-26T02:06:58.934Z,101897.44
2023-01-26T02:09:30.702Z,101903.88
2023-01-26T02:11:59.143Z,101918.94
2023-01-26T02:14:28.736Z,101923.91
2023-01-26T02:16:55.552Z,101924.44
2023-01-26T02:19:32.073Z,101918.56
2023-01-26T02:22:11.470Z,101915.94
2023-01-26T02:24:40.414Z,101915.94
2023-01-26T02:27:08.720Z,101922.09
2023-01-26T02:29:35.578Z,101922.84
2023-01-26T02:32:02.320Z,101921.34
2023-01-26T02:34:29.041Z,101913.38
2023-01-26T02:37:00.120Z,101909.13
2023-01-26T02:39:41.915Z,101913.75
2023-01-26T02:42:10.269Z,101918.41
2023-01-26T02:44:37.674Z,101916.84
2023-01-26T02:47:11.701Z,101923.16
2023-01-26T02:49:38.421Z,101922.75
2023-01-26T02:52:06.105Z,101920.81
2023-01-26T02:54:33.081Z,101937.94
2023-01-26T02:56:59.948Z,101934.53
2023-01-26T02:59:28.015Z,101933.44
2023-01-26T03:01:57.104Z,101938.00
2023-01-26T03:04:24.128Z,101940.41
2023-01-26T03:06:50.868Z,101936.97
2023-01-26T03:09:17.587Z,101942.81
2023-01-26T03:11:44.495Z,101946.94
2023-01-26T03:14:11.845Z,101943.16
2023-01-26T03:16:40.764Z,101942.38
2023-01-26T03:19:09.603Z,101935.50
2023-01-26T03:21:36.529Z,101947.81
2023-01-26T03:24:04.108Z,101944.22
2023-01-26T03:26:30.923Z,101952.63
2023-01-26T03:28:57.635Z,101947.69
2023-01-26T03:31:24.424Z,101948.44
2023-01-26T03:33:52.595Z,101943.47
2023-01-26T03:36:19.395Z,101946.63
2023-01-26T03:38:46.106Z,101951.03
2023-01-26T03:41:12.916Z,101955.66
2023-01-26T03:43:39.640Z,101961.19
2023-01-26T03:46:08.128Z,101962.94
2023-01-26T03:48:34.827Z,101968.50
2023-01-26T03:51:03.036Z,101974.56
2023-01-26T03:53:29.791Z,101969.28
2023-01-26T03:55:58.829Z,101977.78
2023-01-26T03:58:25.553Z,101974.56
2023-01-26T04:00:52.428Z,101967.09
2023-01-26T04:03:21.875Z,101966.03
2023-01-26T04:05:48.597Z,101971.53
2023-01-26T04:08:16.767Z,101988.03
2023-01-26T04:10:43.483Z,101986.16
2023-01-26T04:13:10.250Z,101990.84
2023-01-26T04:15:37.606Z,101992.63
2023-01-26T04:18:06.846Z,101996.25
2023-01-26T04:20:33.549Z,102000.09
2023-01-26T04:23:00.255Z,101998.28
2023-01-26T04:25:28.380Z,101996.63
2023-01-26T04:27:55.139Z,101998.84
2023-01-26T04:30:22.155Z,101989.97
2023-01-26T04:32:51.392Z,101982.06
2023-01-26T04:35:18.261Z,101980.22
2023-01-26T04:37:45.017Z,101980.53
2023-01-26T04:40:12.901Z,101987.69
2023-01-26T04:42:41.167Z,101978.50
2023-01-26T04:45:10.496Z,101982.06
2023-01-26T04:47:37.210Z,101979.13
2023-01-26T04:50:04.427Z,101989.22
2023-01-26T04:52:31.159Z,101989.28
2023-01-26T04:54:57.833Z,101985.38
2023-01-26T04:57:24.549Z,101987.81
2023-01-26T04:59:52.832Z,101995.16
2023-01-26T05:02:19.516Z,102008.88
2023-01-26T05:04:46.176Z,102006.69
2023-01-26T05:07:12.885Z,102003.25
2023-01-26T05:09:39.599Z,102005.31
2023-01-26T05:12:06.729Z,102015.44
2023-01-26T05:14:33.422Z,102011.22
2023-01-26T05:17:01.997Z,102012.44
2023-01-26T05:19:28.763Z,102013.19
2023-01-26T05:21:55.509Z,102018.66
2023-01-26T05:24:22.372Z,102017.00
2023-01-26T05:26:49.270Z,102020.69
2023-01-26T05:29:16.213Z,102015.03
2023-01-26T05:31:42.942Z,102015.03
2023-01-26T05:34:11.107Z,102023.03
2023-01-26T05:36:37.945Z,102022.81
2023-01-26T05:39:04.660Z,102013.88
2023-01-26T05:41:31.376Z,102027.88
2023-01-26T05:43:58.096Z,102043.75
2023-01-26T05:46:24.782Z,102035.50
2023-01-26T05:48:51.456Z,102037.81
2023-01-26T05:51:19.593Z,102045.47
2023-01-26T05:53:46.305Z,102052.25
2023-01-26T05:56:13.008Z,102042.41
2023-01-26T05:58:39.780Z,102045.38
2023-01-26T06:01:06.625Z,102043.91
2023-01-26T06:03:33.360Z,102049.31
2023-01-26T06:06:00.105Z,102049.53
2023-01-26T06:08:28.196Z,102043.53
2023-01-26T06:10:59.318Z,102043.53
2023-01-26T06:13:26.071Z,102048.47
2023-01-26T06:15:52.823Z,102045.50
2023-01-26T06:18:19.583Z,102051.50
2023-01-26T06:20:46.435Z,102053.72
2023-01-26T06:23:13.173Z,102053.13
2023-01-26T06:25:41.307Z,102030.22
2023-01-26T06:28:08.216Z,102044.50
2023-01-26T06:30:35.019Z,102038.59
2023-01-26T06:33:01.782Z,102049.09
2023-01-26T06:35:28.548Z,102045.88
2023-01-26T06:37:55.276Z,102051.41
2023-01-26T06:40:21.995Z,102053.50
2023-01-26T06:42:50.949Z,102047.72
2023-01-26T06:45:17.979Z,102052.38
2023-01-26T06:47:45.500Z,102043.03
2023-01-26T06:50:12.579Z,102045.88
2023-01-26T06:52:42.340Z,102051.91
2023-01-26T06:55:16.868Z,102062.13
2023-01-26T06:57:43.605Z,102053.03
2023-01-26T07:00:13.430Z,102054.13
2023-01-26T07:02:40.937Z,102054.63
2023-01-26T07:05:07.901Z,102062.34
2023-01-26T07:07:34.603Z,102060.78
2023-01-26T07:10:01.422Z,102061.50
2023-01-26T07:12:38.318Z,102063.09
2023-01-26T07:15:05.880Z,102068.53
2023-01-26T07:17:34.041Z,102057.94
2023-01-26T07:20:00.753Z,102064.34
2023-01-26T07:22:27.481Z,102070.25
2023-01-26T07:24:54.204Z,102079.09
2023-01-26T07:27:22.001Z,102084.03
2023-01-26T07:29:48.787Z,102075.78
2023-01-26T07:32:15.777Z,102082.31
2023-01-26T07:34:43.916Z,102083.28
2023-01-26T07:37:10.641Z,102081.78
2023-01-26T07:39:37.341Z,102088.31
2023-01-26T07:42:04.235Z,102101.25
2023-01-26T07:44:30.939Z,102102.88
2023-01-26T07:46:58.073Z,102099.06
2023-01-26T07:49:24.809Z,102104.19
2023-01-26T07:51:52.949Z,102108.63
2023-01-26T07:54:19.914Z,102112.09
2023-01-26T07:56:46.695Z,102110.88
2023-01-26T07:59:13.424Z,102109.38
2023-01-26T08:01:40.274Z,102113.31
2023-01-26T08:04:07.323Z,102119.25
2023-01-26T08:06:34.101Z,102122.44
2023-01-26T08:09:02.192Z,102125.25
2023-01-26T08:11:30.028Z,102132.53
2023-01-26T08:13:56.881Z,102133.53
2023-01-26T08:16:23.731Z,102137.56
2023-01-26T08:18:50.521Z,102143.59
2023-01-26T08:21:18.472Z,102136.34
2023-01-26T08:23:49.293Z,102139.41
2023-01-26T08:26:19.925Z,102144.59
2023-01-26T08:28:47.516Z,102139.06
2023-01-26T08:31:16.306Z,102140.00
2023-01-26T08:33:43.565Z,102142.28
2023-01-26T08:36:12.605Z,102136.00
2023-01-26T08:38:39.376Z,102133.31
2023-01-26T08:41:06.238Z,102122.94
2023-01-26T08:43:34.841Z,102137.13
2023-01-26T08:46:01.661Z,102137.72
2023-01-26T08:48:28.755Z,102148.78
2023-01-26T08:50:56.693Z,102149.06
2023-01-26T08:53:24.108Z,102154.56
2023-01-26T08:55:51.223Z,102151.81
2023-01-26T08:58:18.017Z,102151.81
2023-01-26T09:00:46.463Z,102161.41
2023-01-26T09:03:13.406Z,102157.94
2023-01-26T09:05:40.936Z,102153.31
2023-01-26T09:08:09.382Z,102161.97
2023-01-26T09:10:37.322Z,102159.66
2023-01-26T09:13:04.033Z,102161.41
2023-01-26T09:15:30.754Z,102174.03
2023-01-26T09:18:00.870Z,102181.75
2023-01-26T09:20:28.976Z,102188.59
2023-01-26T09:22:55.752Z,102184.94
2023-01-26T09:25:24.457Z,102175.19
2023-01-26T09:27:51.191Z,102186.84
2023-01-26T09:30:18.055Z,102191.88
2023-01-26T09:32:44.843Z,102182.28
2023-01-26T09:35:14.850Z,102179.44
2023-01-26T09:37:43.774Z,102182.25
2023-01-26T09:40:16.193Z,102185.81
2023-01-26T09:42:54.623Z,102184.97
2023-01-26T09:45:27.193Z,102187.91
2023-01-26T09:48:12.275Z,102198.69
2023-01-26T09:50:46.270Z,102204.81
2023-01-26T09:53:19.064Z,102198.88
2023-01-26T09:55:46.333Z,102196.59
2023-01-26T09:58:15.737Z,102198.38
2023-01-26T10:00:47.611Z,102197.22
2023-01-26T10:03:23.506Z,102200.69
2023-01-26T10:05:58.658Z,102206.13
2023-01-26T10:08:25.815Z,102208.00
2023-01-26T10:10:54.444Z,102203.00
2023-01-26T10:13:22.768Z,102206.22
2023-01-26T10:15:54.354Z,102212.59
2023-01-26T10:18:27.665Z,102206.50
2023-01-26T10:20:58.517Z,102206.97
2023-01-26T10:23:28.681Z,102213.41
2023-01-26T10:26:01.896Z,102215.75
2023-01-26T10:28:32.835Z,102229.53
2023-01-26T10:31:00.341Z,102236.13
2023-01-26T10:33:31.846Z,102236.53
2023-01-26T10:36:00.200Z,102227.91
2023-01-26T10:38:40.885Z,102225.75
2023-01-26T10:41:26.242Z,102222.75
2023-01-26T10:43:55.163Z,102227.91
2023-01-26T10:46:30.591Z,102226.91
2023-01-26T10:48:59.505Z,102232.78
2023-01-26T10:51:30.737Z,102232.47
2023-01-26T10:54:20.951Z,102230.47
2023-01-26T10:56:51.067Z,102237.06
2023-01-26T10:59:27.560Z,102230.13
2023-01-26T11:01:57.062Z,102234.44
2023-01-26T11:04:25.092Z,102235.84
2023-01-26T11:06:53.379Z,102237.63
2023-01-26T11:09:24.371Z,102245.84
2023-01-26T11:12:02.765Z,102249.06
2023-01-26T11:14:30.634Z,102242.50
2023-01-26T11:17:11.298Z,102238.91
2023-01-26T11:19:55.157Z,102222.91
2023-01-26T11:22:33.662Z,102228.84
2023-01-26T11:25:15.011Z,102221.56
2023-01-26T11:27:52.740Z,102224.69
2023-01-26T11:30:43.865Z,102223.13
2023-01-26T11:33:23.439Z,102219.47
2023-01-26T11:35:57.359Z,102214.91
2023-01-26T11:38:39.960Z,102209.56
2023-01-26T11:41:27.971Z,102218.94
2023-01-26T11:44:10.326Z,102217.53
2023-01-26T11:46:57.071Z,102212.34
2023-01-26T11:49:39.904Z,102203.56
2023-01-26T11:52:19.248Z,102201.59
2023-01-26T11:55:23.435Z,102199.38
2023-01-26T11:58:05.561Z,102193.53
2023-01-26T12:00:40.447Z,102192.06
2023-01-26T12:03:22.031Z,102195.84
2023-01-26T12:05:52.491Z,102206.91
2023-01-26T12:08:25.439Z,102217.03
2023-01-26T12:11:02.208Z,102210.53
2023-01-26T12:13:38.928Z,102207.81
2023-01-26T12:16:15.885Z,102222.75
2023-01-26T12:19:10.035Z,102217.72
2023-01-26T12:21:40.153Z,102220.16
2023-01-26T12:24:39.274Z,102213.38
2023-01-26T12:27:08.481Z,102199.25
2023-01-26T12:29:44.605Z,102188.06
2023-01-26T12:32:14.531Z,102187.06
2023-01-26T12:34:41.376Z,102181.28
2023-01-26T12:37:28.362Z,102161.88
2023-01-26T12:40:01.105Z,102161.69
2023-01-26T12:42:42.041Z,102165.34
2023-01-26T12:45:17.553Z,102170.97
2023-01-26T12:47:52.148Z,102170.13
2023-01-26T12:50:27.671Z,102169.72
2023-01-26T12:53:01.561Z,102175.59
2023-01-26T12:55:32.563Z,102179.16
2023-01-26T12:58:04.516Z,102193.06
2023-01-26T13:00:34.247Z,102180.00
2023-01-26T13:05:31.920Z,102172.84
2023-01-26T13:07:59.228Z,102167.72
2023-01-26T13:10:43.463Z,102158.28
2023-01-26T13:13:31.119Z,102141.09
2023-01-26T13:16:31.757Z,102139.25
2023-01-26T13:18:59.743Z,102138.94
2023-01-26T13:21:27.250Z,102136.28
2023-01-26T13:23:54.588Z,102134.22
2023-01-26T13:26:41.975Z,102131.97
2023-01-26T13:29:29.300Z,102133.00
2023-01-26T13:31:57.512Z,102120.81
2023-01-26T13:34:28.338Z,102114.28
2023-01-26T13:37:00.839Z,102103.78
2023-01-26T13:39:34.976Z,102114.88
2023-01-26T13:42:03.795Z,102106.25
2023-01-26T13:44:38.734Z,102114.94
2023-01-26T13:47:12.174Z,102111.88
2023-01-26T13:49:40.756Z,102112.31
2023-01-26T13:52:18.834Z,102124.50
2023-01-26T13:54:46.583Z,102131.25
2023-01-26T13:57:20.970Z,102125.56
2023-01-26T13:59:53.964Z,102131.81
2023-01-26T14:02:26.376Z,102131.63
2023-01-26T14:04:54.050Z,102137.66
2023-01-26T14:07:24.577Z,102143.16
2023-01-26T14:09:56.008Z,102148.28
2023-01-26T14:12:25.231Z,102148.97
2023-01-26T14:14:55.933Z,102150.66
2023-01-26T14:17:27.956Z,102142.44
2023-01-26T14:19:55.431Z,102145.31
2023-01-26T14:22:22.672Z,102155.94
2023-01-26T14:24:50.864Z,102144.78
2023-01-26T14:27:39.780Z,102154.97
2023-01-26T14:33:06.551Z,102158.84
2023-01-26T14:35:34.233Z,102148.56
2023-01-26T14:38:15.362Z,102157.94
2023-01-26T14:40:46.252Z,102169.06
2023-01-26T14:43:15.201Z,102161.88
2023-01-26T14:45:48.435Z,102167.34
2023-01-26T14:48:21.811Z,102161.50
2023-01-26T14:50:50.045Z,102154.13
2023-01-26T14:53:20.719Z,102158.16
2023-01-26T14:55:49.408Z,102156.91
2023-01-26T14:58:22.022Z,102155.34
2023-01-26T15:00:51.246Z,102155.91
2023-01-26T15:03:26.317Z,102157.69
2023-01-26T15:06:19.754Z,102160.72
2023-01-26T15:08:56.811Z,102163.63
2023-01-26T15:11:33.481Z,102157.28
2023-01-26T15:14:01.125Z,102154.41
2023-01-26T15:16:28.868Z,102154.09
2023-01-26T15:19:02.802Z,102154.94
2023-01-26T15:21:33.912Z,102154.41
2023-01-26T15:24:01.254Z,102155.09
2023-01-26T15:26:31.578Z,102148.63
2023-01-26T15:29:00.865Z,102144.00
2023-01-26T15:31:32.892Z,102139.38
2023-01-26T15:34:06.822Z,102142.66
2023-01-26T15:36:47.410Z,102148.66
2023-01-26T15:39:17.006Z,102148.44
2023-01-26T15:41:46.384Z,102146.03
2023-01-26T15:44:18.762Z,102132.53
2023-01-26T15:46:46.700Z,102134.03
2023-01-26T15:49:16.313Z,102132.47
2023-01-26T15:51:43.299Z,102130.91
2023-01-26T15:54:11.379Z,102125.75
2023-01-26T15:56:38.548Z,102117.38
2023-01-26T15:59:05.311Z,102131.28
2023-01-26T16:01:32.329Z,102133.97
2023-01-26T16:03:59.089Z,102131.34
2023-01-26T16:06:29.830Z,102137.22
2023-01-26T16:08:57.166Z,102130.56
2023-01-26T16:11:29.524Z,102137.22
2023-01-26T16:14:03.386Z,102138.38
2023-01-26T16:16:31.757Z,102129.81
2023-01-26T16:18:58.635Z,102128.78
2023-01-26T16:21:29.053Z,102133.84
2023-01-26T16:23:56.244Z,102134.16
2023-01-26T16:26:23.088Z,102123.94
2023-01-26T16:28:49.897Z,102119.81
2023-01-26T16:31:19.278Z,102112.13
2023-01-26T16:33:47.323Z,102115.72
2023-01-26T16:36:15.732Z,102117.03
2023-01-26T16:38:44.318Z,102113.59
2023-01-26T16:41:15.430Z,102117.34
2023-01-26T16:43:43.360Z,102122.25
2023-01-26T16:46:11.283Z,102118.81
2023-01-26T16:48:39.983Z,102120.84
2023-01-26T16:51:19.182Z,102120.53
2023-01-26T16:53:48.266Z,102114.38
2023-01-26T16:56:16.995Z,102125.28
2023-01-26T16:58:44.159Z,102126.28
2023-01-26T17:01:18.001Z,102132.94
2023-01-26T17:03:45.079Z,102132.41
2023-01-26T17:06:12.144Z,102138.72
2023-01-26T17:08:40.827Z,102140.44
2023-01-26T17:11:16.719Z,102147.19
2023-01-26T17:13:43.781Z,102141.59
2023-01-26T17:16:14.948Z,102148.50
2023-01-26T17:18:42.204Z,102163.47
2023-01-26T17:21:09.181Z,102162.88
2023-01-26T17:23:35.969Z,102163.78
2023-01-26T17:26:03.011Z,102169.53
2023-01-26T17:28:31.334Z,102173.59
2023-01-26T17:31:01.042Z,102180.16
2023-01-26T17:33:28.943Z,102183.66
2023-01-26T17:35:59.783Z,102180.78
2023-01-26T17:38:26.663Z,102177.94
2023-01-26T17:40:55.748Z,102178.72
2023-01-26T17:43:22.558Z,102166.66
2023-01-26T17:45:51.312Z,102163.91
2023-01-26T17:48:18.152Z,102163.56
2023-01-26T17:50:47.783Z,102161.31
2023-01-26T17:53:14.741Z,102154.81
2023-01-26T17:55:41.644Z,102154.34
2023-01-26T17:58:08.472Z,102151.44
2023-01-26T18:00:35.237Z,102147.19
2023-01-26T18:03:04.228Z,102149.34
2023-01-26T18:05:31.335Z,102147.47
2023-01-26T18:07:58.231Z,102147.94
2023-01-26T18:10:25.146Z,102143.22
2023-01-26T18:12:51.925Z,102139.63
2023-01-26T18:15:18.784Z,102141.22
2023-01-26T18:17:45.705Z,102130.66
2023-01-26T18:20:14.528Z,102139.25
2023-01-26T18:22:41.412Z,102133.47
2023-01-26T18:25:09.322Z,102134.19
2023-01-26T18:27:36.200Z,102136.19
2023-01-26T18:30:03.357Z,102132.09
2023-01-26T18:32:30.131Z,102138.56
2023-01-26T18:34:57.040Z,102126.94
2023-01-26T18:37:25.459Z,102121.47
2023-01-26T18:39:52.349Z,102120.91
2023-01-26T18:42:19.233Z,102120.75
2023-01-26T18:44:46.112Z,102115.59
2023-01-26T18:47:13.071Z,102117.34
2023-01-26T18:49:39.892Z,102109.16
2023-01-26T18:52:06.889Z,102107.44
2023-01-26T18:54:35.321Z,102101.56
2023-01-26T18:57:02.180Z,102093.00
2023-01-26T18:59:28.978Z,102094.31
2023-01-26T19:01:55.880Z,102107.81
2023-01-26T19:04:22.590Z,102114.25
2023-01-26T19:06:49.613Z,102111.69
2023-01-26T19:09:16.765Z,102113.28
2023-01-26T19:11:45.325Z,102114.50
2023-01-26T19:14:12.346Z,102117.53
2023-01-26T19:16:39.336Z,102129.75
2023-01-26T19:19:06.300Z,102118.63
2023-01-26T19:21:33.966Z,102130.09
2023-01-26T19:24:01.314Z,102129.81
2023-01-26T19:26:28.889Z,102144.00
2023-01-26T19:28:58.113Z,102131.53
2023-01-26T19:31:26.305Z,102135.69
2023-01-26T19:33:53.995Z,102129.25
2023-01-26T19:36:21.430Z,102133.69
2023-01-26T19:38:48.572Z,102127.66
2023-01-26T19:41:15.897Z,102129.72
2023-01-26T19:43:42.996Z,102137.19
2023-01-26T19:46:12.293Z,102141.78
2023-01-26T19:48:39.665Z,102145.66
2023-01-26T19:51:12.949Z,102143.50
2023-01-26T19:53:42.175Z,102141.06
2023-01-26T19:56:10.759Z,102147.22
2023-01-26T19:58:38.133Z,102155.00
2023-01-26T20:01:07.305Z,102151.41
2023-01-26T20:03:36.030Z,102154.56
2023-01-26T20:06:04.653Z,102155.13
2023-01-26T20:08:31.916Z,102156.88
2023-01-26T20:11:05.042Z,102156.88
2023-01-26T20:13:32.160Z,102148.00
2023-01-26T20:15:59.045Z,102145.72
2023-01-26T20:18:26.056Z,102152.03
2023-01-26T20:20:55.963Z,102147.59
2023-01-26T20:23:22.918Z,102147.03
2023-01-26T20:25:51.894Z,102149.19
2023-01-26T20:28:19.547Z,102143.41
2023-01-26T20:30:46.530Z,102150.34
2023-01-26T20:33:13.423Z,102152.91
2023-01-26T20:35:40.714Z,102155.06
2023-01-26T20:38:09.058Z,102154.22
2023-01-26T20:40:37.503Z,102153.06
2023-01-26T20:43:04.523Z,102154.50
2023-01-26T20:45:31.348Z,102145.19
2023-01-26T20:47:58.301Z,102144.31
2023-01-26T20:50:25.079Z,102148.47
2023-01-26T20:52:51.956Z,102148.66
2023-01-26T20:55:20.828Z,102149.22
2023-01-26T20:57:47.635Z,102152.53
2023-01-26T21:00:15.405Z,102144.63
2023-01-26T21:02:42.383Z,102147.34
2023-01-26T21:05:09.521Z,102150.22
2023-01-26T21:07:36.443Z,102142.50
2023-01-26T21:10:03.456Z,102139.19
2023-01-26T21:12:31.791Z,102135.59
2023-01-26T21:14:58.561Z,102136.31
2023-01-26T21:17:25.359Z,102147.38
2023-01-26T21:19:52.134Z,102135.59
2023-01-26T21:22:18.892Z,102140.34
2023-01-26T21:24:45.795Z,102136.75
2023-01-26T21:27:12.665Z,102148.50
2023-01-26T21:29:41.097Z,102151.66
2023-01-26T21:32:08.556Z,102152.53
2023-01-26T21:34:35.557Z,102143.66
2023-01-26T21:37:02.447Z,102152.69
2023-01-26T21:39:29.622Z,102149.53
2023-01-26T21:41:56.373Z,102145.66
2023-01-26T21:44:25.083Z,102146.63
2023-01-26T21:46:55.208Z,102144.78
2023-01-26T21:49:23.444Z,102143.75
2023-01-26T21:51:51.190Z,102144.91
2023-01-26T21:54:17.991Z,102137.28
2023-01-26T21:56:45.160Z,102137.28
2023-01-26T21:59:14.372Z,102142.19
2023-01-26T22:01:45.043Z,102142.44
2023-01-26T22:04:15.790Z,102136.31
2023-01-26T22:06:42.783Z,102129.56
2023-01-26T22:09:11.609Z,102142.47
2023-01-26T22:11:38.440Z,102139.63
2023-01-26T22:14:05.627Z,102147.63
2023-01-26T22:16:32.944Z,102144.47
2023-01-26T22:19:00.290Z,102141.34
2023-01-26T22:21:28.436Z,102135.06
2023-01-26T22:23:55.299Z,102142.09
2023-01-26T22:26:23.298Z,102142.34
2023-01-26T22:28:51.073Z,102145.66
2023-01-26T22:31:20.603Z,102139.34
2023-01-26T22:33:47.785Z,102145.81
2023-01-26T22:36:14.883Z,102147.53
2023-01-26T22:38:43.961Z,102156.25
2023-01-26T22:41:14.523Z,102144.22
2023-01-26T22:43:41.379Z,102143.06
2023-01-26T22:46:10.190Z,102140.50
2023-01-26T22:48:37.464Z,102130.44
2023-01-26T22:51:08.227Z,102140.22
2023-01-26T22:53:35.215Z,102131.78
2023-01-26T22:56:03.838Z,102129.91
2023-01-26T22:58:33.260Z,102131.50
2023-01-26T23:01:08.884Z,102127.72
2023-01-26T23:03:37.432Z,102119.56
2023-01-26T23:06:06.750Z,102117.59
2023-01-26T23:08:33.985Z,102117.72
2023-01-26T23:11:07.200Z,102112.97
2023-01-26T23:13:34.496Z,102115.13
2023-01-26T23:16:01.631Z,102105.28
2023-01-26T23:18:28.645Z,102106.09
2023-01-26T23:20:55.916Z,102103.84
2023-01-26T23:23:22.802Z,102097.94
2023-01-26T23:25:50.189Z,102104.41
2023-01-26T23:28:19.550Z,102102.13
2023-01-26T23:30:46.753Z,102092.22
2023-01-26T23:33:13.832Z,102090.38
2023-01-26T23:35:40.958Z,102077.63
2023-01-26T23:38:08.219Z,102076.47
2023-01-26T23:40:35.672Z,102083.19
2023-01-26T23:43:15.698Z,102083.06
2023-01-26T23:45:45.950Z,102084.63
2023-01-26T23:48:13.403Z,102079.19
2023-01-26T23:50:40.271Z,102079.59
2023-01-26T23:53:07.568Z,102082.50
2023-01-26T23:55:34.712Z,102069.31
2023-01-26T23:58:01.438Z,102067.44
